Time,TemperatureF,DewpointF,PressureIn,WindDirection,WindDirectionDegrees,WindSpeedMPH,WindSpeedGustMPH,Humidity,HourlyPrecipIn,Conditions,Clouds,dailyrainin,SolarRadiationWatts/m^2,SoftwareType,DateUTC
2013-09-04 00:00:00,55.0,52.0,-100.00,ENE,67,0.0,-999.0,91,-99.99,,,-99.99,0.000000,,2013-09-04 04:00:00,
2013-09-04 00:44:00,55.0,52.0,-100.00,ENE,67,0.0,-999.0,91,-99.99,,,-99.99,0.000000,,2013-09-04 04:44:00,
2013-09-04 00:54:00,55.0,52.0,-100.00,ENE,67,0.0,-999.0,91,-99.99,,,-99.99,0.000000,,2013-09-04 04:54:00,
2013-09-04 01:00:00,54.0,51.0,-100.00,ENE,67,0.0,-999.0,91,-99.99,,,-99.99,0.000000,,2013-09-04 05:00:00,
2013-09-04 01:43:00,54.0,51.0,-100.00,ENE,67,0.0,-999.0,91,-99.99,,,-99.99,0.000000,,2013-09-04 05:43:00,
2013-09-04 01:53:00,54.0,51.0,-100.00,ENE,67,0.0,-999.0,91,-99.99,,,-99.99,0.000000,,2013-09-04 05:53:00,
2013-09-04 02:00:00,52.0,50.0,-100.00,NE,45,1.0,-999.0,91,-99.99,,,-99.99,0.000000,,2013-09-04 06:00:00,
2013-09-04 02:42:00,52.0,50.0,-100.00,NE,45,1.0,-999.0,91,-99.99,,,-99.99,0.000000,,2013-09-04 06:42:00,
2013-09-04 02:52:00,52.0,50.0,-100.00,NE,45,1.0,-999.0,91,-99.99,,,-99.99,0.000000,,2013-09-04 06:52:00,
2013-09-04 03:00:00,52.0,50.0,-100.00,NE,45,1.0,-999.0,91,-99.99,,,-99.99,0.000000,,2013-09-04 07:00:00,
2013-09-04 03:42:00,52.0,50.0,-100.00,NE,45,1.0,-999.0,91,-99.99,,,-99.99,0.000000,,2013-09-04 07:42:00,
2013-09-04 03:52:00,52.0,50.0,-100.00,NE,45,1.0,-999.0,91,-99.99,,,-99.99,0.000000,,2013-09-04 07:52:00,
2013-09-04 04:00:00,53.0,50.0,-100.00,ENE,67,2.0,-999.0,91,-99.99,,,-99.99,0.000000,,2013-09-04 08:00:00,
2013-09-04 04:43:00,53.0,50.0,-100.00,ENE,67,2.0,-999.0,91,-99.99,,,-99.99,0.000000,,2013-09-04 08:43:00,
2013-09-04 04:52:00,53.0,50.0,-100.00,ENE,67,2.0,-999.0,91,-99.99,,,-99.99,0.000000,,2013-09-04 08:52:00,
2013-09-04 05:00:00,53.0,50.0,-100.00,NE,45,2.0,-999.0,91,-99.99,,,-99.99,0.000000,,2013-09-04 09:00:00,
2013-09-04 05:43:00,53.0,50.0,-100.00,NE,45,2.0,-999.0,91,-99.99,,,-99.99,0.000000,,2013-09-04 09:43:00,
2013-09-04 05:53:00,53.0,50.0,-100.00,NE,45,2.0,-999.0,91,-99.99,,,-99.99,0.000000,,2013-09-04 09:53:00,
2013-09-04 06:00:00,52.0,50.0,-100.00,NE,45,2.0,-999.0,90,-99.99,,,-99.99,0.000000,,2013-09-04 10:00:00,
2013-09-04 06:42:00,52.0,50.0,-100.00,NE,45,2.0,-999.0,90,-99.99,,,-99.99,0.000000,,2013-09-04 10:42:00,
2013-09-04 06:52:00,52.0,50.0,-100.00,NE,45,2.0,-999.0,90,-99.99,,,-99.99,0.000000,,2013-09-04 10:52:00,
2013-09-04 07:00:00,53.0,50.0,-100.00,ENE,67,2.0,-999.0,91,-99.99,,,-99.99,0.000000,,2013-09-04 11:00:00,
2013-09-04 07:42:00,53.0,50.0,-100.00,ENE,67,2.0,-999.0,91,-99.99,,,-99.99,0.000000,,2013-09-04 11:42:00,
2013-09-04 07:52:00,53.0,50.0,-100.00,ENE,67,2.0,-999.0,91,-99.99,,,-99.99,0.000000,,2013-09-04 11:52:00,
2013-09-04 09:00:00,59.0,55.0,-100.00,ENE,67,1.0,-999.0,88,-99.99,,,-99.99,142.679993,,2013-09-04 13:00:00,
2013-09-04 09:42:00,59.0,55.0,-100.00,ENE,67,1.0,-999.0,88,-99.99,,,-99.99,142.679993,,2013-09-04 13:42:00,
2013-09-04 09:52:00,59.0,55.0,-100.00,ENE,67,1.0,-999.0,88,-99.99,,,-99.99,142.679993,,2013-09-04 13:52:00,
2013-09-04 10:00:00,66.0,59.0,-100.00,ESE,112,5.0,-999.0,76,-99.99,,,-99.99,274.920013,,2013-09-04 14:00:00,
2013-09-04 10:42:00,66.0,59.0,-100.00,ESE,112,5.0,-999.0,76,-99.99,,,-99.99,274.920013,,2013-09-04 14:42:00,
2013-09-04 10:52:00,66.0,59.0,-100.00,ESE,112,5.0,-999.0,76,-99.99,,,-99.99,274.920013,,2013-09-04 14:52:00,
2013-09-04 11:00:00,71.0,57.0,-100.00,SSE,157,10.0,-999.0,61,-99.99,,,-99.99,408.320007,,2013-09-04 15:00:00,
2013-09-04 11:43:00,71.0,57.0,-100.00,SSE,157,10.0,-999.0,61,-99.99,,,-99.99,408.320007,,2013-09-04 15:43:00,
2013-09-04 11:53:00,71.0,57.0,-100.00,SSE,157,10.0,-999.0,61,-99.99,,,-99.99,408.320007,,2013-09-04 15:53:00,
2013-09-04 12:00:00,73.0,55.0,-100.00,SSE,157,11.0,-999.0,52,-99.99,,,-99.99,506.920013,,2013-09-04 16:00:00,
2013-09-04 12:43:00,73.0,55.0,-100.00,SSE,157,11.0,-999.0,52,-99.99,,,-99.99,506.920013,,2013-09-04 16:43:00,
2013-09-04 12:53:00,73.0,55.0,-100.00,SSE,157,11.0,-999.0,52,-99.99,,,-99.99,506.920013,,2013-09-04 16:53:00,
2013-09-04 13:00:00,74.0,54.0,-100.00,SSE,157,10.0,-999.0,49,-99.99,,,-99.99,604.359985,,2013-09-04 17:00:00,
2013-09-04 13:42:00,74.0,54.0,-100.00,SSE,157,10.0,-999.0,49,-99.99,,,-99.99,604.359985,,2013-09-04 17:42:00,
2013-09-04 13:53:00,74.0,54.0,-100.00,SSE,157,10.0,-999.0,49,-99.99,,,-99.99,604.359985,,2013-09-04 17:53:00,
2013-09-04 14:00:00,75.0,54.0,-100.00,SSE,157,10.0,-999.0,48,-99.99,,,-99.99,602.039978,,2013-09-04 18:00:00,
2013-09-04 14:42:00,75.0,54.0,-100.00,SSE,157,10.0,-999.0,48,-99.99,,,-99.99,602.039978,,2013-09-04 18:42:00,
2013-09-04 14:52:00,75.0,54.0,-100.00,SSE,157,10.0,-999.0,48,-99.99,,,-99.99,602.039978,,2013-09-04 18:52:00,
2013-09-04 15:00:00,76.0,54.0,-100.00,SSE,157,9.0,-999.0,47,-99.99,,,-99.99,593.919983,,2013-09-04 19:00:00,
2013-09-04 15:42:00,76.0,54.0,-100.00,SSE,157,9.0,-999.0,47,-99.99,,,-99.99,593.919983,,2013-09-04 19:42:00,
2013-09-04 15:52:00,76.0,54.0,-100.00,SSE,157,9.0,-999.0,47,-99.99,,,-99.99,593.919983,,2013-09-04 19:52:00,
2013-09-04 16:00:00,75.0,54.0,-100.00,SSE,157,8.0,-999.0,48,-99.99,,,-99.99,436.160004,,2013-09-04 20:00:00,
2013-09-04 16:43:00,75.0,54.0,-100.00,SSE,157,8.0,-999.0,48,-99.99,,,-99.99,436.160004,,2013-09-04 20:43:00,
2013-09-04 16:53:00,75.0,54.0,-100.00,SSE,157,8.0,-999.0,48,-99.99,,,-99.99,436.160004,,2013-09-04 20:53:00,
2013-09-04 17:00:00,75.0,53.0,-100.00,SSE,157,8.0,-999.0,46,-99.99,,,-99.99,332.920013,,2013-09-04 21:00:00,
2013-09-04 17:44:00,75.0,53.0,-100.00,SSE,157,8.0,-999.0,46,-99.99,,,-99.99,332.920013,,2013-09-04 21:44:00,
2013-09-04 17:54:00,75.0,53.0,-100.00,SSE,157,8.0,-999.0,46,-99.99,,,-99.99,332.920013,,2013-09-04 21:54:00,
2013-09-04 18:00:00,75.0,53.0,-100.00,SSE,157,7.0,-999.0,46,-99.99,,,-99.99,276.079987,,2013-09-04 22:00:00,
2013-09-04 18:43:00,75.0,53.0,-100.00,SSE,157,7.0,-999.0,46,-99.99,,,-99.99,276.079987,,2013-09-04 22:43:00,
2013-09-04 18:55:00,75.0,53.0,-100.00,SSE,157,7.0,-999.0,46,-99.99,,,-99.99,276.079987,,2013-09-04 22:55:00,
2013-09-04 19:00:00,76.0,50.0,-100.00,SSE,157,6.0,-999.0,40,-99.99,,,-99.99,241.279999,,2013-09-04 23:00:00,
2013-09-04 19:42:00,76.0,50.0,-100.00,SSE,157,6.0,-999.0,40,-99.99,,,-99.99,241.279999,,2013-09-04 23:42:00,
2013-09-04 19:52:00,76.0,50.0,-100.00,SSE,157,6.0,-999.0,40,-99.99,,,-99.99,241.279999,,2013-09-04 23:52:00,
2013-09-04 20:00:00,75.0,52.0,-100.00,SSE,157,3.0,-999.0,45,-99.99,,,-99.99,73.080002,,2013-09-05 00:00:00,
2013-09-04 20:43:00,75.0,52.0,-100.00,SSE,157,3.0,-999.0,45,-99.99,,,-99.99,73.080002,,2013-09-05 00:43:00,
2013-09-04 20:52:00,75.0,52.0,-100.00,SSE,157,3.0,-999.0,45,-99.99,,,-99.99,73.080002,,2013-09-05 00:52:00,
2013-09-04 22:00:00,63.0,56.0,-100.00,East,90,0.0,-999.0,77,-99.99,,,-99.99,0.000000,,2013-09-05 02:00:00,
2013-09-04 22:52:00,63.0,56.0,-100.00,East,90,0.0,-999.0,77,-99.99,,,-99.99,0.000000,,2013-09-05 02:52:00,
2013-09-04 23:00:00,62.0,55.0,-100.00,NW,315,0.0,-999.0,79,-99.99,,,-99.99,0.000000,,2013-09-05 03:00:00,
2013-09-04 23:45:00,62.0,55.0,-100.00,NW,315,0.0,-999.0,79,-99.99,,,-99.99,0.000000,,2013-09-05 03:45:00,
2013-09-04 23:54:00,62.0,55.0,-100.00,NW,315,0.0,-999.0,79,-99.99,,,-99.99,0.000000,,2013-09-05 03:54:00,